KADG

Lenawee County Airport

Adrian, Michigan, USA
METAR KADG 232153Z AUTO 28008KT 10SM OVC010 08/06 A3016 RMK AO2 SLP220 T00830061 TSNO
Observed Flight Rules
Feb-23 @ 21:53 UTC (40 minutes ago) Marginal Visual Flight Rules
Wind Visibility Clouds
280° at 8 knots 10 miles
  • Overcast at 1,000' AGL
Temperatures Readings
Current 8°C / 46°F
Dewpoint 6°C / 43°F
Humidity 87%
Altimeter 30.16" Hg
Pressure 1022 hPa
Elevation 241
METAR KADG 232153Z AUTO 28008KT 10SM OVC010 08/06 A3016 RMK AO2 SLP220 T00830061 TSNO
Observed Flight Rules
Feb-23 @ 21:53 UTC
(40 minutes ago)
MVFR
Wind Visibility
280° at 8 knots 10 miles
Clouds
  • Overcast at 1,000' AGL
Temperature Dewpoint
8°C / 46°F 6°C / 43°F
Humidity Altimeter Pressure
87% 30.16" Hg 1022 hPa